sensor_id;sensor_type;location;lat;lon;timestamp;P1;durP1;ratioP1;P2;durP2;ratioP2
38805;SDS011;25635;51.146;17.162;2022-09-17T00:01:06;4.83;;;1.70;;
38805;SDS011;25635;51.146;17.162;2022-09-17T00:03:35;5.10;;;1.80;;
38805;SDS011;25635;51.146;17.162;2022-09-17T00:06:03;6.10;;;2.10;;
38805;SDS011;25635;51.146;17.162;2022-09-17T00:08:33;5.53;;;1.98;;
38805;SDS011;25635;51.146;17.162;2022-09-17T00:11:15;5.22;;;1.95;;
38805;SDS011;25635;51.146;17.162;2022-09-17T00:13:46;5.78;;;1.77;;
38805;SDS011;25635;51.146;17.162;2022-09-17T00:16:19;4.37;;;1.90;;
38805;SDS011;25635;51.146;17.162;2022-09-17T00:18:57;4.97;;;1.87;;
38805;SDS011;25635;51.146;17.162;2022-09-17T00:21:25;4.40;;;1.82;;
38805;SDS011;25635;51.146;17.162;2022-09-17T00:23:56;4.75;;;1.55;;
38805;SDS011;25635;51.146;17.162;2022-09-17T00:26:26;4.20;;;1.50;;
38805;SDS011;25635;51.146;17.162;2022-09-17T00:28:54;4.55;;;1.55;;
38805;SDS011;25635;51.146;17.162;2022-09-17T00:31:21;5.60;;;1.77;;
38805;SDS011;25635;51.146;17.162;2022-09-17T00:33:48;6.75;;;2.15;;
38805;SDS011;25635;51.146;17.162;2022-09-17T00:36:15;11.93;;;2.00;;
38805;SDS011;25635;51.146;17.162;2022-09-17T00:38:47;4.75;;;1.70;;
38805;SDS011;25635;51.146;17.162;2022-09-17T00:41:22;4.37;;;1.82;;
38805;SDS011;25635;51.146;17.162;2022-09-17T00:43:55;4.28;;;1.67;;
38805;SDS011;25635;51.146;17.162;2022-09-17T00:46:36;4.87;;;1.42;;
38805;SDS011;25635;51.146;17.162;2022-09-17T00:49:10;3.22;;;1.00;;
38805;SDS011;25635;51.146;17.162;2022-09-17T00:51:58;5.30;;;1.17;;
38805;SDS011;25635;51.146;17.162;2022-09-17T00:54:28;6.25;;;1.30;;
38805;SDS011;25635;51.146;17.162;2022-09-17T00:56:55;7.15;;;1.35;;
38805;SDS011;25635;51.146;17.162;2022-09-17T00:59:22;2.85;;;1.02;;
38805;SDS011;25635;51.146;17.162;2022-09-17T01:01:49;7.03;;;1.10;;
38805;SDS011;25635;51.146;17.162;2022-09-17T01:04:17;4.05;;;1.12;;
38805;SDS011;25635;51.146;17.162;2022-09-17T01:07:05;3.45;;;1.00;;
38805;SDS011;25635;51.146;17.162;2022-09-17T01:09:58;3.60;;;1.07;;
38805;SDS011;25635;51.146;17.162;2022-09-17T01:13:05;3.27;;;1.00;;
38805;SDS011;25635;51.146;17.162;2022-09-17T01:15:54;3.62;;;1.15;;
38805;SDS011;25635;51.146;17.162;2022-09-17T01:44:44;4.58;;;1.10;;
38805;SDS011;25635;51.146;17.162;2022-09-17T01:47:30;4.10;;;1.65;;
38805;SDS011;25635;51.146;17.162;2022-09-17T01:50:17;5.00;;;1.20;;
38805;SDS011;25635;51.146;17.162;2022-09-17T01:52:49;4.50;;;1.02;;
38805;SDS011;25635;51.146;17.162;2022-09-17T01:55:19;4.55;;;1.17;;
38805;SDS011;25635;51.146;17.162;2022-09-17T01:57:53;4.67;;;1.10;;
38805;SDS011;25635;51.146;17.162;2022-09-17T02:00:24;3.72;;;1.10;;
38805;SDS011;25635;51.146;17.162;2022-09-17T02:02:55;3.87;;;1.20;;
38805;SDS011;25635;51.146;17.162;2022-09-17T02:05:36;4.53;;;1.30;;
38805;SDS011;25635;51.146;17.162;2022-09-17T02:08:10;4.10;;;1.40;;
38805;SDS011;25635;51.146;17.162;2022-09-17T02:10:50;3.65;;;1.12;;
38805;SDS011;25635;51.146;17.162;2022-09-17T02:14:12;4.85;;;1.20;;
38805;SDS011;25635;51.146;17.162;2022-09-17T02:16:07;5.33;;;1.20;;
38805;SDS011;25635;51.146;17.162;2022-09-17T02:29:36;3.65;;;1.10;;
38805;SDS011;25635;51.146;17.162;2022-09-17T02:32:06;3.50;;;1.12;;
38805;SDS011;25635;51.146;17.162;2022-09-17T02:34:33;5.42;;;1.15;;
38805;SDS011;25635;51.146;17.162;2022-09-17T02:37:00;4.00;;;1.30;;
38805;SDS011;25635;51.146;17.162;2022-09-17T02:39:29;3.50;;;1.30;;
38805;SDS011;25635;51.146;17.162;2022-09-17T02:53:57;4.67;;;1.40;;
38805;SDS011;25635;51.146;17.162;2022-09-17T02:59:52;3.52;;;1.40;;
38805;SDS011;25635;51.146;17.162;2022-09-17T03:02:45;4.85;;;1.27;;
38805;SDS011;25635;51.146;17.162;2022-09-17T03:05:34;7.58;;;1.40;;
38805;SDS011;25635;51.146;17.162;2022-09-17T03:08:02;4.42;;;1.40;;
38805;SDS011;25635;51.146;17.162;2022-09-17T03:10:28;3.58;;;1.27;;
38805;SDS011;25635;51.146;17.162;2022-09-17T03:12:56;4.85;;;1.60;;
38805;SDS011;25635;51.146;17.162;2022-09-17T03:15:22;4.05;;;1.45;;
38805;SDS011;25635;51.146;17.162;2022-09-17T03:17:48;3.33;;;1.10;;
38805;SDS011;25635;51.146;17.162;2022-09-17T03:20:15;6.33;;;1.37;;
38805;SDS011;25635;51.146;17.162;2022-09-17T03:22:41;3.52;;;1.20;;
38805;SDS011;25635;51.146;17.162;2022-09-17T03:25:08;3.60;;;1.10;;
38805;SDS011;25635;51.146;17.162;2022-09-17T03:27:35;3.60;;;1.17;;
38805;SDS011;25635;51.146;17.162;2022-09-17T03:30:02;4.15;;;1.30;;
38805;SDS011;25635;51.146;17.162;2022-09-17T03:32:31;3.92;;;1.35;;
38805;SDS011;25635;51.146;17.162;2022-09-17T03:34:58;5.47;;;1.22;;
38805;SDS011;25635;51.146;17.162;2022-09-17T03:37:24;3.90;;;1.30;;
38805;SDS011;25635;51.146;17.162;2022-09-17T03:39:50;3.83;;;1.20;;
38805;SDS011;25635;51.146;17.162;2022-09-17T03:42:16;3.80;;;1.27;;
38805;SDS011;25635;51.146;17.162;2022-09-17T03:44:42;4.33;;;0.90;;
38805;SDS011;25635;51.146;17.162;2022-09-17T03:47:09;4.92;;;1.05;;
38805;SDS011;25635;51.146;17.162;2022-09-17T03:49:36;3.60;;;1.05;;
38805;SDS011;25635;51.146;17.162;2022-09-17T03:52:02;3.00;;;1.02;;
38805;SDS011;25635;51.146;17.162;2022-09-17T03:54:29;4.00;;;0.90;;
38805;SDS011;25635;51.146;17.162;2022-09-17T03:56:55;4.60;;;1.20;;
38805;SDS011;25635;51.146;17.162;2022-09-17T03:59:21;3.15;;;0.90;;
38805;SDS011;25635;51.146;17.162;2022-09-17T04:01:47;2.77;;;0.78;;
38805;SDS011;25635;51.146;17.162;2022-09-17T04:04:13;4.58;;;1.40;;
38805;SDS011;25635;51.146;17.162;2022-09-17T04:06:40;3.42;;;1.15;;
38805;SDS011;25635;51.146;17.162;2022-09-17T04:09:06;3.22;;;1.02;;
38805;SDS011;25635;51.146;17.162;2022-09-17T04:11:33;5.83;;;1.17;;
38805;SDS011;25635;51.146;17.162;2022-09-17T04:13:59;3.80;;;1.02;;
38805;SDS011;25635;51.146;17.162;2022-09-17T04:16:25;5.85;;;1.00;;
38805;SDS011;25635;51.146;17.162;2022-09-17T04:18:51;2.20;;;0.85;;
38805;SDS011;25635;51.146;17.162;2022-09-17T04:21:18;5.42;;;1.10;;
38805;SDS011;25635;51.146;17.162;2022-09-17T04:23:44;5.08;;;1.25;;
38805;SDS011;25635;51.146;17.162;2022-09-17T04:26:10;4.42;;;1.07;;
38805;SDS011;25635;51.146;17.162;2022-09-17T04:28:36;6.30;;;1.00;;
38805;SDS011;25635;51.146;17.162;2022-09-17T04:31:02;3.92;;;1.00;;
38805;SDS011;25635;51.146;17.162;2022-09-17T04:33:29;4.10;;;1.30;;
38805;SDS011;25635;51.146;17.162;2022-09-17T04:35:56;4.72;;;1.00;;
38805;SDS011;25635;51.146;17.162;2022-09-17T04:38:22;4.47;;;1.17;;
38805;SDS011;25635;51.146;17.162;2022-09-17T04:40:48;5.00;;;1.50;;
38805;SDS011;25635;51.146;17.162;2022-09-17T04:43:16;6.70;;;1.82;;
38805;SDS011;25635;51.146;17.162;2022-09-17T04:45:46;5.58;;;1.30;;
38805;SDS011;25635;51.146;17.162;2022-09-17T04:48:13;4.45;;;1.40;;
38805;SDS011;25635;51.146;17.162;2022-09-17T04:50:39;4.17;;;1.45;;
38805;SDS011;25635;51.146;17.162;2022-09-17T04:53:06;6.70;;;1.12;;
38805;SDS011;25635;51.146;17.162;2022-09-17T04:55:32;5.05;;;1.30;;
38805;SDS011;25635;51.146;17.162;2022-09-17T04:57:58;4.83;;;1.20;;
38805;SDS011;25635;51.146;17.162;2022-09-17T05:00:24;4.05;;;1.00;;
38805;SDS011;25635;51.146;17.162;2022-09-17T05:02:51;3.98;;;1.12;;
38805;SDS011;25635;51.146;17.162;2022-09-17T05:05:19;7.50;;;1.62;;
38805;SDS011;25635;51.146;17.162;2022-09-17T05:07:47;4.62;;;1.12;;
38805;SDS011;25635;51.146;17.162;2022-09-17T05:10:15;3.95;;;1.17;;
38805;SDS011;25635;51.146;17.162;2022-09-17T05:12:55;7.08;;;1.50;;
38805;SDS011;25635;51.146;17.162;2022-09-17T05:15:22;6.08;;;1.27;;
38805;SDS011;25635;51.146;17.162;2022-09-17T05:17:50;5.50;;;1.40;;
38805;SDS011;25635;51.146;17.162;2022-09-17T05:20:16;5.58;;;1.40;;
38805;SDS011;25635;51.146;17.162;2022-09-17T05:22:44;4.20;;;1.30;;
38805;SDS011;25635;51.146;17.162;2022-09-17T05:25:13;4.85;;;1.10;;
38805;SDS011;25635;51.146;17.162;2022-09-17T05:27:43;6.12;;;1.27;;
38805;SDS011;25635;51.146;17.162;2022-09-17T05:30:11;5.47;;;1.32;;
38805;SDS011;25635;51.146;17.162;2022-09-17T05:32:38;6.80;;;1.30;;
38805;SDS011;25635;51.146;17.162;2022-09-17T05:35:06;5.42;;;1.30;;
38805;SDS011;25635;51.146;17.162;2022-09-17T05:37:33;5.17;;;1.17;;
38805;SDS011;25635;51.146;17.162;2022-09-17T05:40:01;3.95;;;1.32;;
38805;SDS011;25635;51.146;17.162;2022-09-17T05:42:31;4.97;;;1.00;;
38805;SDS011;25635;51.146;17.162;2022-09-17T05:44:58;5.65;;;1.20;;
38805;SDS011;25635;51.146;17.162;2022-09-17T05:47:24;5.20;;;1.30;;
38805;SDS011;25635;51.146;17.162;2022-09-17T05:49:50;4.22;;;1.30;;
38805;SDS011;25635;51.146;17.162;2022-09-17T05:52:16;4.28;;;1.15;;
38805;SDS011;25635;51.146;17.162;2022-09-17T05:54:43;3.37;;;1.20;;
38805;SDS011;25635;51.146;17.162;2022-09-17T05:57:09;6.97;;;1.65;;
38805;SDS011;25635;51.146;17.162;2022-09-17T05:59:36;5.97;;;1.30;;
38805;SDS011;25635;51.146;17.162;2022-09-17T06:02:02;5.70;;;1.57;;
38805;SDS011;25635;51.146;17.162;2022-09-17T06:04:28;6.22;;;1.37;;
38805;SDS011;25635;51.146;17.162;2022-09-17T06:06:55;4.35;;;1.40;;
38805;SDS011;25635;51.146;17.162;2022-09-17T06:09:21;5.80;;;1.40;;
38805;SDS011;25635;51.146;17.162;2022-09-17T06:11:47;6.28;;;1.65;;
38805;SDS011;25635;51.146;17.162;2022-09-17T06:14:14;5.80;;;1.40;;
38805;SDS011;25635;51.146;17.162;2022-09-17T06:16:41;6.55;;;1.40;;
38805;SDS011;25635;51.146;17.162;2022-09-17T06:19:07;6.83;;;1.30;;
38805;SDS011;25635;51.146;17.162;2022-09-17T06:21:33;5.28;;;1.37;;
38805;SDS011;25635;51.146;17.162;2022-09-17T06:24:01;6.03;;;1.77;;
38805;SDS011;25635;51.146;17.162;2022-09-17T06:26:28;7.67;;;1.50;;
38805;SDS011;25635;51.146;17.162;2022-09-17T06:28:54;6.42;;;1.62;;
38805;SDS011;25635;51.146;17.162;2022-09-17T06:31:20;5.33;;;1.45;;
38805;SDS011;25635;51.146;17.162;2022-09-17T06:33:46;5.30;;;1.82;;
38805;SDS011;25635;51.146;17.162;2022-09-17T06:36:12;6.35;;;1.75;;
38805;SDS011;25635;51.146;17.162;2022-09-17T06:38:39;7.12;;;1.77;;
38805;SDS011;25635;51.146;17.162;2022-09-17T06:41:05;5.85;;;1.72;;
38805;SDS011;25635;51.146;17.162;2022-09-17T06:43:31;6.87;;;1.60;;
38805;SDS011;25635;51.146;17.162;2022-09-17T06:45:58;5.72;;;1.40;;
38805;SDS011;25635;51.146;17.162;2022-09-17T06:48:27;5.67;;;1.40;;
38805;SDS011;25635;51.146;17.162;2022-09-17T06:50:59;7.33;;;1.57;;
38805;SDS011;25635;51.146;17.162;2022-09-17T06:53:29;7.28;;;1.60;;
38805;SDS011;25635;51.146;17.162;2022-09-17T06:55:56;5.95;;;1.50;;
38805;SDS011;25635;51.146;17.162;2022-09-17T06:58:25;6.75;;;1.75;;
38805;SDS011;25635;51.146;17.162;2022-09-17T07:00:56;7.95;;;2.05;;
38805;SDS011;25635;51.146;17.162;2022-09-17T07:03:26;6.92;;;1.72;;
38805;SDS011;25635;51.146;17.162;2022-09-17T07:05:54;6.70;;;1.55;;
38805;SDS011;25635;51.146;17.162;2022-09-17T07:08:22;4.47;;;1.25;;
38805;SDS011;25635;51.146;17.162;2022-09-17T07:10:48;4.15;;;1.40;;
38805;SDS011;25635;51.146;17.162;2022-09-17T07:13:14;5.45;;;1.60;;
38805;SDS011;25635;51.146;17.162;2022-09-17T07:15:40;11.08;;;1.65;;
38805;SDS011;25635;51.146;17.162;2022-09-17T07:18:07;5.25;;;1.70;;
38805;SDS011;25635;51.146;17.162;2022-09-17T07:20:35;7.33;;;2.02;;
38805;SDS011;25635;51.146;17.162;2022-09-17T07:23:03;6.20;;;1.70;;
38805;SDS011;25635;51.146;17.162;2022-09-17T07:25:29;5.85;;;1.42;;
38805;SDS011;25635;51.146;17.162;2022-09-17T07:27:55;7.58;;;1.50;;
38805;SDS011;25635;51.146;17.162;2022-09-17T07:30:21;6.05;;;1.47;;
38805;SDS011;25635;51.146;17.162;2022-09-17T07:32:47;7.62;;;1.67;;
38805;SDS011;25635;51.146;17.162;2022-09-17T07:35:14;5.72;;;1.52;;
38805;SDS011;25635;51.146;17.162;2022-09-17T07:37:40;4.35;;;1.67;;
38805;SDS011;25635;51.146;17.162;2022-09-17T07:40:06;6.90;;;1.52;;
38805;SDS011;25635;51.146;17.162;2022-09-17T07:42:33;6.70;;;1.47;;
38805;SDS011;25635;51.146;17.162;2022-09-17T07:44:59;7.60;;;1.70;;
38805;SDS011;25635;51.146;17.162;2022-09-17T07:47:26;6.17;;;1.85;;
38805;SDS011;25635;51.146;17.162;2022-09-17T07:49:52;6.25;;;1.90;;
38805;SDS011;25635;51.146;17.162;2022-09-17T07:52:18;6.65;;;1.90;;
38805;SDS011;25635;51.146;17.162;2022-09-17T07:54:44;7.97;;;2.00;;
38805;SDS011;25635;51.146;17.162;2022-09-17T07:57:10;6.80;;;1.90;;
38805;SDS011;25635;51.146;17.162;2022-09-17T07:59:36;5.20;;;1.60;;
38805;SDS011;25635;51.146;17.162;2022-09-17T08:02:02;6.95;;;1.67;;
38805;SDS011;25635;51.146;17.162;2022-09-17T08:04:28;5.70;;;1.60;;
38805;SDS011;25635;51.146;17.162;2022-09-17T08:06:54;9.38;;;2.62;;
38805;SDS011;25635;51.146;17.162;2022-09-17T08:09:20;8.55;;;2.65;;
38805;SDS011;25635;51.146;17.162;2022-09-17T08:11:47;6.60;;;2.22;;
38805;SDS011;25635;51.146;17.162;2022-09-17T08:14:14;5.70;;;1.87;;
38805;SDS011;25635;51.146;17.162;2022-09-17T08:16:41;7.00;;;1.60;;
38805;SDS011;25635;51.146;17.162;2022-09-17T08:19:07;6.20;;;2.00;;
38805;SDS011;25635;51.146;17.162;2022-09-17T08:21:35;5.28;;;1.80;;
38805;SDS011;25635;51.146;17.162;2022-09-17T08:24:01;6.70;;;1.90;;
38805;SDS011;25635;51.146;17.162;2022-09-17T08:26:28;5.58;;;1.65;;
38805;SDS011;25635;51.146;17.162;2022-09-17T08:28:54;8.48;;;1.70;;
38805;SDS011;25635;51.146;17.162;2022-09-17T08:31:22;8.83;;;1.77;;
38805;SDS011;25635;51.146;17.162;2022-09-17T08:33:51;5.25;;;1.45;;
38805;SDS011;25635;51.146;17.162;2022-09-17T08:36:18;6.85;;;2.30;;
38805;SDS011;25635;51.146;17.162;2022-09-17T08:38:46;4.85;;;1.80;;
38805;SDS011;25635;51.146;17.162;2022-09-17T08:41:25;5.83;;;1.80;;
38805;SDS011;25635;51.146;17.162;2022-09-17T08:46:57;5.90;;;1.47;;
38805;SDS011;25635;51.146;17.162;2022-09-17T08:49:34;7.03;;;1.52;;
38805;SDS011;25635;51.146;17.162;2022-09-17T08:52:30;5.33;;;1.65;;
38805;SDS011;25635;51.146;17.162;2022-09-17T09:03:58;6.53;;;2.00;;
38805;SDS011;25635;51.146;17.162;2022-09-17T09:06:33;4.33;;;1.55;;
38805;SDS011;25635;51.146;17.162;2022-09-17T09:09:04;4.97;;;1.90;;
38805;SDS011;25635;51.146;17.162;2022-09-17T09:11:37;9.23;;;1.90;;
38805;SDS011;25635;51.146;17.162;2022-09-17T09:16:47;5.37;;;2.00;;
38805;SDS011;25635;51.146;17.162;2022-09-17T09:19:21;7.22;;;2.27;;
38805;SDS011;25635;51.146;17.162;2022-09-17T09:24:33;5.50;;;2.20;;
38805;SDS011;25635;51.146;17.162;2022-09-17T09:27:17;7.30;;;2.08;;
38805;SDS011;25635;51.146;17.162;2022-09-17T09:30:04;7.25;;;2.72;;
38805;SDS011;25635;51.146;17.162;2022-09-17T09:32:57;7.10;;;2.30;;
38805;SDS011;25635;51.146;17.162;2022-09-17T09:35:40;5.33;;;1.92;;
38805;SDS011;25635;51.146;17.162;2022-09-17T09:43:29;4.60;;;2.40;;
38805;SDS011;25635;51.146;17.162;2022-09-17T09:52:09;5.80;;;2.22;;
38805;SDS011;25635;51.146;17.162;2022-09-17T10:00:22;6.03;;;2.75;;
38805;SDS011;25635;51.146;17.162;2022-09-17T10:03:12;6.37;;;2.58;;
38805;SDS011;25635;51.146;17.162;2022-09-17T10:05:58;9.38;;;3.02;;
38805;SDS011;25635;51.146;17.162;2022-09-17T10:08:30;5.65;;;2.50;;
38805;SDS011;25635;51.146;17.162;2022-09-17T10:11:03;5.60;;;2.40;;
38805;SDS011;25635;51.146;17.162;2022-09-17T10:13:39;5.78;;;2.12;;
38805;SDS011;25635;51.146;17.162;2022-09-17T10:16:20;5.35;;;2.20;;
38805;SDS011;25635;51.146;17.162;2022-09-17T10:21:37;4.03;;;2.12;;
38805;SDS011;25635;51.146;17.162;2022-09-17T10:24:24;6.47;;;2.90;;
38805;SDS011;25635;51.146;17.162;2022-09-17T10:26:59;6.83;;;2.80;;
38805;SDS011;25635;51.146;17.162;2022-09-17T10:29:28;4.70;;;1.80;;
38805;SDS011;25635;51.146;17.162;2022-09-17T10:31:56;5.42;;;2.25;;
38805;SDS011;25635;51.146;17.162;2022-09-17T10:34:27;4.83;;;2.37;;
38805;SDS011;25635;51.146;17.162;2022-09-17T10:36:58;5.12;;;2.30;;
38805;SDS011;25635;51.146;17.162;2022-09-17T10:39:31;6.20;;;2.33;;
38805;SDS011;25635;51.146;17.162;2022-09-17T10:44:56;5.33;;;2.47;;
38805;SDS011;25635;51.146;17.162;2022-09-17T10:47:29;6.30;;;2.08;;
38805;SDS011;25635;51.146;17.162;2022-09-17T10:50:03;4.47;;;1.85;;
38805;SDS011;25635;51.146;17.162;2022-09-17T10:52:36;4.65;;;1.72;;
38805;SDS011;25635;51.146;17.162;2022-09-17T11:01:19;5.72;;;1.62;;
38805;SDS011;25635;51.146;17.162;2022-09-17T11:10:26;3.98;;;1.32;;
38805;SDS011;25635;51.146;17.162;2022-09-17T11:13:20;5.12;;;2.02;;
38805;SDS011;25635;51.146;17.162;2022-09-17T11:16:11;4.62;;;1.40;;
38805;SDS011;25635;51.146;17.162;2022-09-17T11:24:28;4.62;;;1.50;;
38805;SDS011;25635;51.146;17.162;2022-09-17T11:27:13;4.12;;;1.30;;
38805;SDS011;25635;51.146;17.162;2022-09-17T11:41:17;3.62;;;1.12;;
38805;SDS011;25635;51.146;17.162;2022-09-17T11:44:03;4.15;;;1.12;;
38805;SDS011;25635;51.146;17.162;2022-09-17T11:46:43;3.67;;;1.30;;
38805;SDS011;25635;51.146;17.162;2022-09-17T11:49:45;3.40;;;1.10;;
38805;SDS011;25635;51.146;17.162;2022-09-17T11:52:29;4.00;;;1.10;;
38805;SDS011;25635;51.146;17.162;2022-09-17T11:55:07;2.40;;;0.90;;
38805;SDS011;25635;51.146;17.162;2022-09-17T11:57:46;6.37;;;1.10;;
38805;SDS011;25635;51.146;17.162;2022-09-17T12:00:17;6.72;;;1.37;;
38805;SDS011;25635;51.146;17.162;2022-09-17T12:02:56;5.75;;;1.30;;
38805;SDS011;25635;51.146;17.162;2022-09-17T12:05:27;4.22;;;1.07;;
38805;SDS011;25635;51.146;17.162;2022-09-17T12:10:59;3.27;;;1.07;;
38805;SDS011;25635;51.146;17.162;2022-09-17T12:16:19;4.20;;;1.10;;
38805;SDS011;25635;51.146;17.162;2022-09-17T12:19:07;6.67;;;1.60;;
38805;SDS011;25635;51.146;17.162;2022-09-17T12:24:29;5.40;;;1.40;;
38805;SDS011;25635;51.146;17.162;2022-09-17T12:41:35;5.42;;;1.00;;
38805;SDS011;25635;51.146;17.162;2022-09-17T12:46:58;3.20;;;0.90;;
38805;SDS011;25635;51.146;17.162;2022-09-17T12:49:53;3.92;;;1.20;;
38805;SDS011;25635;51.146;17.162;2022-09-17T12:52:52;3.75;;;1.15;;
38805;SDS011;25635;51.146;17.162;2022-09-17T13:18:52;2.85;;;0.60;;
38805;SDS011;25635;51.146;17.162;2022-09-17T13:24:29;3.60;;;0.93;;
38805;SDS011;25635;51.146;17.162;2022-09-17T13:26:57;3.85;;;0.90;;
38805;SDS011;25635;51.146;17.162;2022-09-17T13:40:24;4.17;;;0.70;;
38805;SDS011;25635;51.146;17.162;2022-09-17T13:48:30;2.60;;;0.55;;
38805;SDS011;25635;51.146;17.162;2022-09-17T13:53:57;2.45;;;0.60;;
38805;SDS011;25635;51.146;17.162;2022-09-17T13:56:37;3.00;;;0.70;;
38805;SDS011;25635;51.146;17.162;2022-09-17T13:59:15;3.80;;;1.00;;
38805;SDS011;25635;51.146;17.162;2022-09-17T14:04:45;4.33;;;1.02;;
38805;SDS011;25635;51.146;17.162;2022-09-17T14:10:00;3.30;;;0.80;;
38805;SDS011;25635;51.146;17.162;2022-09-17T14:15:36;1.57;;;0.30;;
38805;SDS011;25635;51.146;17.162;2022-09-17T14:21:04;4.87;;;0.55;;
38805;SDS011;25635;51.146;17.162;2022-09-17T14:23:41;2.15;;;0.40;;
38805;SDS011;25635;51.146;17.162;2022-09-17T14:26:27;2.58;;;0.40;;
38805;SDS011;25635;51.146;17.162;2022-09-17T14:31:43;3.02;;;0.50;;
38805;SDS011;25635;51.146;17.162;2022-09-17T14:34:12;1.47;;;0.40;;
38805;SDS011;25635;51.146;17.162;2022-09-17T14:36:41;4.42;;;0.60;;
38805;SDS011;25635;51.146;17.162;2022-09-17T14:39:19;4.28;;;1.00;;
38805;SDS011;25635;51.146;17.162;2022-09-17T14:41:54;3.62;;;0.80;;
38805;SDS011;25635;51.146;17.162;2022-09-17T14:44:21;3.65;;;0.90;;
38805;SDS011;25635;51.146;17.162;2022-09-17T14:46:55;5.42;;;1.17;;
38805;SDS011;25635;51.146;17.162;2022-09-17T14:49:33;3.45;;;0.80;;
38805;SDS011;25635;51.146;17.162;2022-09-17T14:52:04;4.87;;;0.82;;
38805;SDS011;25635;51.146;17.162;2022-09-17T14:54:49;3.70;;;0.80;;
38805;SDS011;25635;51.146;17.162;2022-09-17T14:57:37;7.70;;;2.85;;
38805;SDS011;25635;51.146;17.162;2022-09-17T15:00:03;5.10;;;2.12;;
38805;SDS011;25635;51.146;17.162;2022-09-17T15:02:35;4.65;;;1.30;;
38805;SDS011;25635;51.146;17.162;2022-09-17T15:10:52;4.28;;;1.60;;
38805;SDS011;25635;51.146;17.162;2022-09-17T15:13:28;6.47;;;1.30;;
38805;SDS011;25635;51.146;17.162;2022-09-17T15:16:21;4.25;;;1.27;;
38805;SDS011;25635;51.146;17.162;2022-09-17T15:18:54;4.08;;;1.32;;
38805;SDS011;25635;51.146;17.162;2022-09-17T15:24:01;5.17;;;1.07;;
38805;SDS011;25635;51.146;17.162;2022-09-17T15:27:43;5.72;;;1.50;;
38805;SDS011;25635;51.146;17.162;2022-09-17T15:29:38;4.95;;;1.77;;
38805;SDS011;25635;51.146;17.162;2022-09-17T15:32:08;6.00;;;1.20;;
38805;SDS011;25635;51.146;17.162;2022-09-17T15:34:40;5.53;;;1.02;;
38805;SDS011;25635;51.146;17.162;2022-09-17T15:37:20;4.30;;;1.12;;
38805;SDS011;25635;51.146;17.162;2022-09-17T15:42:24;5.40;;;1.40;;
38805;SDS011;25635;51.146;17.162;2022-09-17T15:45:05;4.97;;;1.20;;
38805;SDS011;25635;51.146;17.162;2022-09-17T15:50:29;4.83;;;1.30;;
38805;SDS011;25635;51.146;17.162;2022-09-17T15:55:42;5.55;;;1.52;;
38805;SDS011;25635;51.146;17.162;2022-09-17T15:58:30;4.33;;;1.50;;
38805;SDS011;25635;51.146;17.162;2022-09-17T16:06:33;5.62;;;1.25;;
38805;SDS011;25635;51.146;17.162;2022-09-17T16:09:01;4.22;;;0.85;;
38805;SDS011;25635;51.146;17.162;2022-09-17T16:11:29;2.98;;;0.90;;
38805;SDS011;25635;51.146;17.162;2022-09-17T16:13:57;3.85;;;1.17;;
38805;SDS011;25635;51.146;17.162;2022-09-17T16:16:26;5.78;;;1.10;;
38805;SDS011;25635;51.146;17.162;2022-09-17T16:19:02;4.30;;;0.90;;
38805;SDS011;25635;51.146;17.162;2022-09-17T16:21:31;4.20;;;0.90;;
38805;SDS011;25635;51.146;17.162;2022-09-17T16:23:57;5.25;;;1.30;;
38805;SDS011;25635;51.146;17.162;2022-09-17T16:26:28;5.12;;;1.10;;
38805;SDS011;25635;51.146;17.162;2022-09-17T16:28:58;4.08;;;1.50;;
38805;SDS011;25635;51.146;17.162;2022-09-17T16:31:28;6.58;;;2.80;;
38805;SDS011;25635;51.146;17.162;2022-09-17T16:33:54;8.23;;;3.02;;
38805;SDS011;25635;51.146;17.162;2022-09-17T16:36:21;7.83;;;3.72;;
38805;SDS011;25635;51.146;17.162;2022-09-17T16:38:47;8.00;;;3.95;;
38805;SDS011;25635;51.146;17.162;2022-09-17T16:41:13;8.95;;;4.83;;
38805;SDS011;25635;51.146;17.162;2022-09-17T16:43:40;7.15;;;3.55;;
38805;SDS011;25635;51.146;17.162;2022-09-17T16:46:07;6.90;;;3.40;;
38805;SDS011;25635;51.146;17.162;2022-09-17T16:48:36;6.08;;;2.92;;
38805;SDS011;25635;51.146;17.162;2022-09-17T16:51:06;8.05;;;3.40;;
38805;SDS011;25635;51.146;17.162;2022-09-17T16:53:35;5.92;;;2.72;;
38805;SDS011;25635;51.146;17.162;2022-09-17T16:56:05;5.47;;;1.87;;
38805;SDS011;25635;51.146;17.162;2022-09-17T16:58:36;5.53;;;1.62;;
38805;SDS011;25635;51.146;17.162;2022-09-17T17:01:12;7.47;;;5.10;;
38805;SDS011;25635;51.146;17.162;2022-09-17T17:03:40;5.58;;;2.30;;
38805;SDS011;25635;51.146;17.162;2022-09-17T17:06:20;5.75;;;2.30;;
38805;SDS011;25635;51.146;17.162;2022-09-17T17:08:46;7.80;;;1.40;;
38805;SDS011;25635;51.146;17.162;2022-09-17T17:11:13;7.62;;;3.52;;
38805;SDS011;25635;51.146;17.162;2022-09-17T17:13:40;7.85;;;3.10;;
38805;SDS011;25635;51.146;17.162;2022-09-17T17:16:08;5.15;;;2.30;;
38805;SDS011;25635;51.146;17.162;2022-09-17T17:18:37;5.35;;;1.95;;
38805;SDS011;25635;51.146;17.162;2022-09-17T17:21:06;5.75;;;1.87;;
38805;SDS011;25635;51.146;17.162;2022-09-17T17:23:34;7.35;;;2.12;;
38805;SDS011;25635;51.146;17.162;2022-09-17T17:26:00;6.28;;;1.98;;
38805;SDS011;25635;51.146;17.162;2022-09-17T17:28:32;6.72;;;3.00;;
38805;SDS011;25635;51.146;17.162;2022-09-17T17:31:01;10.40;;;5.00;;
38805;SDS011;25635;51.146;17.162;2022-09-17T17:33:28;7.15;;;1.85;;
38805;SDS011;25635;51.146;17.162;2022-09-17T17:35:54;6.28;;;2.08;;
38805;SDS011;25635;51.146;17.162;2022-09-17T17:38:26;7.03;;;1.95;;
38805;SDS011;25635;51.146;17.162;2022-09-17T17:41:06;4.97;;;1.30;;
38805;SDS011;25635;51.146;17.162;2022-09-17T17:43:38;5.15;;;1.27;;
38805;SDS011;25635;51.146;17.162;2022-09-17T17:46:06;5.47;;;1.30;;
38805;SDS011;25635;51.146;17.162;2022-09-17T17:48:35;7.65;;;1.47;;
38805;SDS011;25635;51.146;17.162;2022-09-17T17:51:07;5.72;;;1.30;;
38805;SDS011;25635;51.146;17.162;2022-09-17T17:53:33;6.15;;;1.10;;
38805;SDS011;25635;51.146;17.162;2022-09-17T17:56:01;4.00;;;0.90;;
38805;SDS011;25635;51.146;17.162;2022-09-17T17:58:33;5.40;;;1.02;;
38805;SDS011;25635;51.146;17.162;2022-09-17T18:01:14;3.90;;;1.15;;
38805;SDS011;25635;51.146;17.162;2022-09-17T18:03:44;4.12;;;1.12;;
38805;SDS011;25635;51.146;17.162;2022-09-17T18:06:10;3.52;;;1.17;;
38805;SDS011;25635;51.146;17.162;2022-09-17T18:08:38;5.28;;;1.50;;
38805;SDS011;25635;51.146;17.162;2022-09-17T18:11:07;4.67;;;1.57;;
38805;SDS011;25635;51.146;17.162;2022-09-17T18:13:36;6.72;;;2.12;;
38805;SDS011;25635;51.146;17.162;2022-09-17T18:16:04;4.78;;;1.15;;
38805;SDS011;25635;51.146;17.162;2022-09-17T18:18:34;3.72;;;1.10;;
38805;SDS011;25635;51.146;17.162;2022-09-17T18:21:04;4.80;;;1.20;;
38805;SDS011;25635;51.146;17.162;2022-09-17T18:23:33;4.80;;;1.27;;
38805;SDS011;25635;51.146;17.162;2022-09-17T18:26:03;6.30;;;1.20;;
38805;SDS011;25635;51.146;17.162;2022-09-17T18:28:34;4.47;;;1.10;;
38805;SDS011;25635;51.146;17.162;2022-09-17T18:31:11;5.42;;;2.35;;
38805;SDS011;25635;51.146;17.162;2022-09-17T18:36:31;5.10;;;1.98;;
38805;SDS011;25635;51.146;17.162;2022-09-17T18:52:49;6.67;;;2.65;;
38805;SDS011;25635;51.146;17.162;2022-09-17T18:55:16;5.30;;;2.92;;
38805;SDS011;25635;51.146;17.162;2022-09-17T18:57:42;5.72;;;2.02;;
38805;SDS011;25635;51.146;17.162;2022-09-17T19:00:09;7.35;;;1.85;;
38805;SDS011;25635;51.146;17.162;2022-09-17T19:02:36;5.25;;;1.82;;
38805;SDS011;25635;51.146;17.162;2022-09-17T19:05:03;6.08;;;1.45;;